Time;durP1;ratioP1;P1;durP2;ratioP2;P2;SDS_P1;SDS_P2;PMS_P1;PMS_P2;Temp;Humidity;BMP_temperature;BMP_pressure;BME280_temperature;BME280_humidity;BME280_pressure;Samples;Min_cycle;Max_cycle;Signal;HPM_P1;HPM_P2
2023/09/11 00:01:14;;;;;;;22.58;16.33;;;21.20;99.90;;;;;;5120228;28;20096;-56
2023/09/11 00:03:40;;;;;;;20.75;17.17;;;21.20;99.90;;;;;;5119807;28;20036;-56
2023/09/11 00:06:06;;;;;;;20.35;15.82;;;21.10;99.90;;;;;;5120511;28;20078;-56
2023/09/11 00:08:32;;;;;;;24.15;16.77;;;21.20;99.90;;;;;;5119248;28;20063;-57
2023/09/11 00:10:58;;;;;;;22.02;15.85;;;21.10;99.90;;;;;;5120539;28;20062;-56
2023/09/11 00:13:25;;;;;;;20.65;15.93;;;21.10;99.90;;;;;;5119362;28;20066;-57
2023/09/11 00:15:50;;;;;;;20.35;15.85;;;21.00;99.90;;;;;;5120422;28;20061;-57
2023/09/11 00:18:16;;;;;;;20.70;15.73;;;21.00;99.90;;;;;;5119638;28;20115;-57
2023/09/11 00:20:41;;;;;;;24.92;16.33;;;21.00;99.90;;;;;;5119645;28;20047;-57
2023/09/11 00:23:08;;;;;;;22.50;16.05;;;21.00;99.90;;;;;;5120115;28;20039;-57
2023/09/11 00:25:37;;;;;;;20.67;16.33;;;21.00;99.90;;;;;;5118585;28;20055;-56
2023/09/11 00:28:03;;;;;;;25.13;16.27;;;20.90;99.90;;;;;;5120257;28;20051;-57
2023/09/11 00:30:29;;;;;;;22.17;16.95;;;20.90;99.90;;;;;;5119144;28;20057;-57
2023/09/11 00:32:54;;;;;;;22.00;16.05;;;20.90;99.90;;;;;;5120217;28;20043;-57
2023/09/11 00:35:20;;;;;;;19.75;16.17;;;20.90;99.90;;;;;;5119163;28;20047;-57
2023/09/11 00:37:46;;;;;;;21.17;15.82;;;20.90;99.90;;;;;;5119298;28;20053;-57
2023/09/11 00:40:11;;;;;;;24.20;15.80;;;20.90;99.90;;;;;;5119806;28;20276;-57
2023/09/11 00:42:37;;;;;;;22.08;15.95;;;20.90;99.90;;;;;;5118686;28;20055;-57
2023/09/11 00:45:03;;;;;;;22.48;15.43;;;20.80;99.90;;;;;;5119902;28;20047;-57
2023/09/11 00:47:29;;;;;;;21.35;15.65;;;20.80;99.90;;;;;;5118510;28;20035;-57
2023/09/11 00:49:57;;;;;;;24.50;16.58;;;20.80;99.90;;;;;;5118521;28;20055;-57
2023/09/11 00:52:23;;;;;;;20.15;15.57;;;20.70;99.90;;;;;;5119152;28;20039;-57
2023/09/11 00:54:52;;;;;;;21.38;15.88;;;20.80;99.90;;;;;;5111790;28;20459;-55
2023/09/11 00:57:18;;;;;;;21.05;16.08;;;20.70;99.90;;;;;;5099417;28;20048;-57
2023/09/11 00:59:45;;;;;;;22.20;16.00;;;20.70;99.90;;;;;;5098416;28;20099;-57
2023/09/11 01:02:12;;;;;;;19.42;15.02;;;20.70;99.90;;;;;;5099387;28;20403;-57
2023/09/11 01:04:39;;;;;;;22.27;15.85;;;20.70;99.90;;;;;;5098331;28;20036;-57
2023/09/11 01:07:05;;;;;;;20.80;16.48;;;20.70;99.90;;;;;;5099509;28;20116;-59
2023/09/11 01:09:33;;;;;;;24.13;17.00;;;20.60;99.90;;;;;;5100555;28;20052;-57
2023/09/11 01:11:58;;;;;;;23.77;15.48;;;20.70;99.90;;;;;;5103103;28;20090;-58
2023/09/11 01:14:25;;;;;;;24.73;15.88;;;20.60;99.90;;;;;;5103408;28;20044;-57
2023/09/11 01:17:28;;;;;;;20.98;15.85;;;20.60;99.90;;;;;;5102033;28;20109;-57
2023/09/11 01:20:22;;;;;;;21.27;16.10;;;20.60;99.90;;;;;;5103139;28;20036;-57
2023/09/11 01:23:08;;;;;;;23.73;16.40;;;20.50;99.90;;;;;;5091792;28;20044;-56
2023/09/11 01:25:49;;;;;;;21.48;15.52;;;20.50;99.90;;;;;;5101602;28;20052;-57
2023/09/11 01:28:48;;;;;;;27.48;17.02;;;20.50;99.90;;;;;;5103199;28;20036;-57
2023/09/11 01:31:14;;;;;;;23.05;16.08;;;20.50;99.90;;;;;;5101101;28;20511;-57
2023/09/11 01:33:41;;;;;;;24.02;16.85;;;20.50;99.90;;;;;;5102054;28;20047;-57
2023/09/11 01:36:07;;;;;;;19.05;15.90;;;20.40;99.90;;;;;;5103109;28;20304;-57
2023/09/11 01:38:33;;;;;;;22.95;16.17;;;20.40;99.90;;;;;;5100015;28;20059;-58
2023/09/11 01:41:03;;;;;;;24.05;16.23;;;20.40;99.90;;;;;;5101671;28;20044;-57
2023/09/11 01:43:32;;;;;;;21.53;15.57;;;20.40;99.90;;;;;;5101948;28;20115;-54
2023/09/11 01:46:00;;;;;;;25.00;15.82;;;20.40;99.90;;;;;;5100938;28;20324;-57
2023/09/11 01:48:29;;;;;;;22.95;15.88;;;20.40;99.90;;;;;;5102286;28;20140;-57
2023/09/11 01:50:55;;;;;;;24.35;16.40;;;20.40;99.90;;;;;;5101705;28;20445;-57
2023/09/11 01:53:21;;;;;;;21.15;16.05;;;20.40;99.90;;;;;;5102661;28;20058;-57
2023/09/11 01:55:47;;;;;;;26.27;17.30;;;20.40;99.90;;;;;;5116725;28;20074;-57
2023/09/11 01:58:13;;;;;;;23.08;16.15;;;20.40;99.90;;;;;;5123155;28;20039;-57
2023/09/11 02:00:38;;;;;;;25.73;15.93;;;20.40;99.90;;;;;;5120457;28;20075;-56
2023/09/11 02:03:04;;;;;;;21.73;15.98;;;20.30;99.90;;;;;;5122970;28;20050;-57
2023/09/11 02:05:30;;;;;;;23.23;15.95;;;20.30;99.90;;;;;;5122144;28;20035;-57
2023/09/11 02:07:56;;;;;;;23.45;15.85;;;20.30;99.90;;;;;;5121925;28;20058;-57
2023/09/11 02:10:22;;;;;;;25.45;15.93;;;20.30;99.90;;;;;;5122755;28;20047;-57
2023/09/11 02:12:48;;;;;;;20.42;15.40;;;20.30;99.90;;;;;;5121607;28;20052;-57
2023/09/11 02:15:13;;;;;;;25.73;15.68;;;20.30;99.90;;;;;;5122846;28;20067;-58
2023/09/11 02:17:39;;;;;;;20.92;15.60;;;20.20;99.90;;;;;;5121635;28;20043;-57
2023/09/11 02:20:06;;;;;;;23.52;15.90;;;20.20;99.90;;;;;;5121790;28;20043;-57
2023/09/11 02:22:31;;;;;;;22.23;16.30;;;20.30;99.90;;;;;;5122219;28;20039;-59
2023/09/11 02:24:57;;;;;;;25.50;16.05;;;20.30;99.90;;;;;;5121708;28;20464;-57
2023/09/11 02:27:23;;;;;;;23.20;15.82;;;20.20;99.90;;;;;;5122379;28;20048;-57
2023/09/11 02:29:48;;;;;;;25.90;16.45;;;20.20;99.90;;;;;;5121123;28;20035;-57
2023/09/11 02:32:14;;;;;;;22.77;16.02;;;20.20;99.90;;;;;;5122428;28;20051;-56
2023/09/11 02:34:39;;;;;;;25.75;15.80;;;20.20;99.90;;;;;;5120937;28;20047;-57
2023/09/11 02:37:05;;;;;;;23.35;15.90;;;20.20;99.90;;;;;;5122527;28;20040;-57
2023/09/11 02:39:31;;;;;;;23.40;16.63;;;20.20;99.90;;;;;;5121363;28;20089;-57
2023/09/11 02:41:56;;;;;;;24.05;16.52;;;20.20;99.90;;;;;;5121818;27;20187;-57
2023/09/11 02:44:22;;;;;;;29.02;17.40;;;20.10;99.90;;;;;;5121928;28;20048;-57
2023/09/11 02:46:48;;;;;;;22.15;15.95;;;20.10;99.90;;;;;;5120931;28;20060;-57
2023/09/11 02:49:13;;;;;;;23.40;15.90;;;20.10;99.90;;;;;;5121609;27;20043;-57
2023/09/11 02:51:39;;;;;;;19.38;15.77;;;20.00;99.90;;;;;;5120911;28;20070;-57
2023/09/11 02:54:05;;;;;;;21.42;16.67;;;20.00;99.90;;;;;;5121299;28;20291;-58
2023/09/11 02:56:30;;;;;;;25.65;17.05;;;20.00;99.90;;;;;;5100839;28;20264;-57
2023/09/11 02:58:56;;;;;;;23.88;16.15;;;19.90;99.90;;;;;;5099843;28;20522;-57
2023/09/11 03:01:22;;;;;;;21.90;16.02;;;20.00;99.90;;;;;;5101141;28;20483;-57
2023/09/11 03:03:48;;;;;;;20.63;16.40;;;20.00;99.90;;;;;;5100230;28;20064;-57
2023/09/11 03:06:13;;;;;;;24.63;16.85;;;20.00;99.90;;;;;;5100945;28;20051;-57
2023/09/11 03:08:39;;;;;;;22.85;16.63;;;20.00;99.90;;;;;;5099931;28;20043;-57
2023/09/11 03:11:09;;;;;;;22.08;16.55;;;19.90;99.90;;;;;;5101466;28;20047;-57
2023/09/11 03:13:36;;;;;;;23.67;16.77;;;19.90;99.90;;;;;;5100359;28;20047;-57
2023/09/11 03:16:10;;;;;;;23.58;16.75;;;19.90;99.90;;;;;;5100784;28;20032;-57
2023/09/11 03:18:36;;;;;;;23.35;16.98;;;19.90;99.90;;;;;;5100321;28;20113;-57
2023/09/11 03:21:03;;;;;;;24.15;16.48;;;19.90;99.90;;;;;;5099823;28;20110;-57
2023/09/11 03:23:29;;;;;;;27.50;16.73;;;19.90;99.90;;;;;;5101177;28;20071;-58
2023/09/11 03:25:54;;;;;;;23.88;17.10;;;19.80;99.90;;;;;;5098148;28;20040;-57
2023/09/11 03:28:20;;;;;;;25.02;16.95;;;19.80;99.90;;;;;;5106854;28;20117;-56
2023/09/11 03:30:46;;;;;;;28.40;17.35;;;19.80;99.90;;;;;;5108769;28;20073;-57
2023/09/11 03:33:12;;;;;;;20.30;16.90;;;19.80;99.90;;;;;;5102883;28;20039;-57
2023/09/11 03:35:38;;;;;;;26.58;16.95;;;19.80;99.90;;;;;;5100246;28;20048;-57
2023/09/11 03:38:03;;;;;;;21.88;17.17;;;19.80;99.90;;;;;;5099731;28;20485;-57
2023/09/11 03:40:29;;;;;;;25.98;17.58;;;19.80;99.90;;;;;;5100507;28;20044;-57
2023/09/11 03:42:55;;;;;;;27.10;17.55;;;19.80;99.90;;;;;;5099752;28;20051;-57
2023/09/11 03:45:21;;;;;;;26.35;16.85;;;19.80;99.90;;;;;;5100933;28;20048;-57
2023/09/11 03:47:46;;;;;;;22.70;16.15;;;19.80;99.90;;;;;;5099762;28;20055;-57
2023/09/11 03:50:12;;;;;;;23.02;16.50;;;19.80;99.90;;;;;;5100358;28;20079;-57
2023/09/11 03:52:38;;;;;;;23.88;17.27;;;19.80;99.90;;;;;;5100353;28;20044;-57
2023/09/11 03:55:04;;;;;;;26.30;17.13;;;19.80;99.90;;;;;;5108462;28;20047;-57
2023/09/11 03:57:30;;;;;;;21.05;16.25;;;19.80;99.90;;;;;;5120870;28;20031;-57
2023/09/11 03:59:55;;;;;;;24.38;16.30;;;19.80;99.90;;;;;;5119638;28;20051;-57
2023/09/11 04:02:21;;;;;;;23.05;15.95;;;19.80;99.90;;;;;;5120876;28;20063;-57
2023/09/11 04:04:46;;;;;;;21.95;16.20;;;19.70;99.90;;;;;;5118325;28;20043;-56
2023/09/11 04:07:12;;;;;;;25.17;16.67;;;19.70;99.90;;;;;;5120769;28;20036;-57
2023/09/11 04:09:38;;;;;;;26.08;16.83;;;19.80;99.90;;;;;;5120136;28;20126;-57
2023/09/11 04:12:04;;;;;;;23.13;16.40;;;19.80;99.90;;;;;;5119756;28;20073;-58
2023/09/11 04:14:30;;;;;;;21.88;15.35;;;19.80;99.90;;;;;;5120424;28;20040;-56
2023/09/11 04:16:56;;;;;;;26.92;16.55;;;19.70;99.90;;;;;;5119182;28;20054;-58
2023/09/11 04:19:21;;;;;;;23.10;16.10;;;19.70;99.90;;;;;;5120488;28;20107;-57
2023/09/11 04:21:47;;;;;;;25.88;16.23;;;19.70;99.90;;;;;;5119436;28;20043;-58
2023/09/11 04:24:13;;;;;;;24.20;16.75;;;19.80;99.90;;;;;;5120804;28;20040;-58
2023/09/11 04:26:40;;;;;;;25.30;15.93;;;19.70;99.90;;;;;;5119489;28;20043;-57
2023/09/11 04:29:06;;;;;;;21.52;15.90;;;19.70;99.90;;;;;;5119568;28;20101;-57
2023/09/11 04:31:32;;;;;;;25.38;16.67;;;19.70;99.90;;;;;;5120218;28;20047;-57
2023/09/11 04:33:58;;;;;;;25.38;16.20;;;19.70;99.90;;;;;;5117736;28;20572;-58
2023/09/11 04:36:23;;;;;;;29.27;15.65;;;19.70;99.90;;;;;;5120243;28;20082;-57
2023/09/11 04:38:49;;;;;;;20.50;15.40;;;19.70;99.90;;;;;;5119059;28;20048;-57
2023/09/11 04:41:16;;;;;;;30.08;16.15;;;19.70;99.90;;;;;;5120486;28;20036;-57
2023/09/11 04:43:41;;;;;;;25.73;15.80;;;19.70;99.90;;;;;;5119266;28;20093;-57
2023/09/11 04:46:07;;;;;;;28.92;16.80;;;19.70;99.90;;;;;;5119515;28;20055;-58
2023/09/11 04:48:33;;;;;;;24.85;16.33;;;19.70;99.90;;;;;;5119880;28;20071;-57
2023/09/11 04:50:59;;;;;;;23.38;15.73;;;19.60;99.90;;;;;;5119087;28;20070;-58
2023/09/11 04:53:25;;;;;;;22.23;15.10;;;19.70;99.90;;;;;;5120171;28;20044;-56
2023/09/11 04:55:50;;;;;;;22.80;14.35;;;19.70;99.90;;;;;;5102726;28;20040;-58
2023/09/11 04:58:16;;;;;;;21.88;14.90;;;19.60;99.90;;;;;;5099967;28;20040;-57
2023/09/11 05:00:42;;;;;;;23.42;16.30;;;19.60;99.90;;;;;;5098709;28;20849;-57
2023/09/11 05:03:08;;;;;;;24.90;16.08;;;19.70;99.90;;;;;;5099097;28;20048;-58
2023/09/11 05:05:38;;;;;;;24.77;16.50;;;19.60;99.90;;;;;;5099301;28;20036;-57
2023/09/11 05:08:06;;;;;;;24.60;15.38;;;19.70;99.90;;;;;;5098610;28;20426;-57
2023/09/11 05:10:31;;;;;;;27.15;16.40;;;19.70;99.90;;;;;;5099597;28;20390;-58
2023/09/11 05:12:57;;;;;;;23.25;14.98;;;19.70;99.90;;;;;;5098189;28;20067;-59
2023/09/11 05:15:23;;;;;;;23.92;15.25;;;19.80;99.90;;;;;;5099678;28;20555;-58
2023/09/11 05:17:49;;;;;;;26.40;15.73;;;19.80;99.90;;;;;;5098544;28;20041;-57
2023/09/11 05:20:15;;;;;;;24.95;14.55;;;19.80;99.90;;;;;;5099267;28;20037;-58
2023/09/11 05:22:41;;;;;;;22.40;14.43;;;19.80;99.90;;;;;;5097660;28;20050;-58
2023/09/11 05:25:08;;;;;;;21.70;14.93;;;19.80;99.90;;;;;;5098361;28;20048;-57
2023/09/11 05:27:33;;;;;;;22.73;15.35;;;19.90;99.90;;;;;;5099022;28;20051;-57
2023/09/11 05:29:59;;;;;;;22.13;14.85;;;19.80;99.90;;;;;;5098234;28;20040;-58
2023/09/11 05:32:25;;;;;;;24.23;15.93;;;19.90;99.90;;;;;;5099466;28;20044;-57
2023/09/11 05:34:54;;;;;;;25.35;14.75;;;19.90;99.90;;;;;;5097075;28;20055;-57
2023/09/11 05:37:19;;;;;;;25.23;15.40;;;19.80;99.90;;;;;;5104360;28;20530;-58
2023/09/11 05:39:46;;;;;;;27.10;14.93;;;19.90;99.90;;;;;;5106153;28;20065;-58
2023/09/11 05:42:12;;;;;;;25.33;14.93;;;19.90;99.90;;;;;;5104430;28;21546;-57
2023/09/11 05:44:37;;;;;;;19.08;14.90;;;19.90;99.90;;;;;;5105592;28;20077;-58
2023/09/11 05:47:04;;;;;;;27.33;15.75;;;20.00;99.90;;;;;;5103375;28;20560;-58
2023/09/11 05:49:30;;;;;;;25.80;15.20;;;20.00;99.90;;;;;;5105850;28;20122;-58
2023/09/11 05:51:57;;;;;;;22.73;14.65;;;20.00;99.90;;;;;;5108399;28;20089;-57
2023/09/11 05:54:22;;;;;;;26.85;14.75;;;20.00;99.90;;;;;;5113956;28;20043;-57
2023/09/11 05:56:49;;;;;;;25.48;14.90;;;20.10;99.90;;;;;;5098859;28;20055;-58
2023/09/11 05:59:18;;;;;;;19.65;13.85;;;20.10;99.90;;;;;;5096940;28;20039;-57
2023/09/11 06:01:45;;;;;;;23.50;14.23;;;20.20;99.90;;;;;;5097882;28;20048;-57
2023/09/11 06:04:11;;;;;;;21.40;14.73;;;20.20;99.90;;;;;;5098220;28;20810;-58
2023/09/11 06:06:38;;;;;;;23.25;15.63;;;20.30;99.90;;;;;;5099693;28;20046;-57
2023/09/11 06:09:07;;;;;;;25.55;15.25;;;20.30;99.90;;;;;;5098163;28;20044;-58
2023/09/11 06:11:34;;;;;;;26.08;14.45;;;20.40;99.90;;;;;;5099011;28;20058;-57
2023/09/11 06:14:00;;;;;;;27.85;14.38;;;20.40;99.90;;;;;;5098784;28;20055;-57
2023/09/11 06:16:25;;;;;;;22.83;14.10;;;20.40;99.90;;;;;;5097981;28;20052;-57
2023/09/11 06:18:51;;;;;;;19.45;13.50;;;20.50;99.90;;;;;;5098594;28;20048;-58
2023/09/11 06:21:17;;;;;;;24.20;14.13;;;20.50;99.90;;;;;;5097658;28;20120;-58
2023/09/11 06:23:43;;;;;;;22.00;13.82;;;20.60;99.90;;;;;;5098920;28;20078;-57
2023/09/11 06:26:10;;;;;;;26.75;14.02;;;20.60;99.90;;;;;;5097977;28;20044;-57
2023/09/11 06:28:35;;;;;;;22.35;13.57;;;20.70;99.90;;;;;;5098665;28;20055;-58
2023/09/11 06:31:01;;;;;;;22.60;13.70;;;20.70;99.90;;;;;;5097972;28;20371;-58
2023/09/11 06:33:30;;;;;;;22.05;13.65;;;20.80;99.90;;;;;;5106783;28;20036;-58
2023/09/11 06:35:58;;;;;;;21.80;13.73;;;20.80;99.90;;;;;;5118075;28;20043;-57
2023/09/11 06:38:24;;;;;;;23.08;14.95;;;20.80;99.90;;;;;;5117209;28;20046;-58
2023/09/11 06:40:50;;;;;;;19.92;13.57;;;20.90;99.90;;;;;;5118825;28;20052;-58
2023/09/11 06:43:15;;;;;;;25.02;14.25;;;21.00;99.90;;;;;;5117293;28;20031;-58
2023/09/11 06:45:41;;;;;;;21.92;14.73;;;21.00;99.90;;;;;;5117823;28;20139;-58
2023/09/11 06:48:10;;;;;;;21.77;15.20;;;21.20;99.90;;;;;;5117165;28;20063;-58
2023/09/11 06:50:37;;;;;;;23.88;14.27;;;21.20;99.90;;;;;;5117314;28;20063;-57
2023/09/11 06:53:03;;;;;;;21.38;13.93;;;21.30;99.90;;;;;;5117786;28;20067;-57
2023/09/11 06:55:28;;;;;;;25.23;14.38;;;21.30;99.90;;;;;;5102607;28;20052;-58
2023/09/11 06:57:56;;;;;;;20.50;14.15;;;21.40;99.90;;;;;;5095821;28;20055;-58
2023/09/11 07:00:22;;;;;;;26.42;15.30;;;21.50;99.90;;;;;;5098093;28;20512;-57
2023/09/11 07:02:48;;;;;;;22.20;14.05;;;21.50;99.90;;;;;;5117685;28;20048;-58
2023/09/11 07:05:16;;;;;;;22.65;14.07;;;21.50;99.90;;;;;;5116454;28;20086;-57
2023/09/11 07:07:42;;;;;;;22.35;14.75;;;21.60;99.90;;;;;;5116636;28;20848;-58
2023/09/11 07:10:11;;;;;;;20.67;15.18;;;21.70;99.90;;;;;;5117150;28;20107;-57
2023/09/11 07:12:38;;;;;;;20.17;14.43;;;21.80;99.90;;;;;;5116365;28;20039;-58
2023/09/11 07:15:05;;;;;;;25.33;14.43;;;21.90;99.90;;;;;;5117842;28;20047;-57
2023/09/11 07:17:31;;;;;;;23.02;15.00;;;22.00;99.90;;;;;;5116661;28;20040;-58
2023/09/11 07:19:57;;;;;;;18.55;13.60;;;22.10;99.40;;;;;;5117591;28;20115;-58
2023/09/11 07:22:22;;;;;;;20.90;14.27;;;22.20;96.80;;;;;;5116613;28;20042;-58
2023/09/11 07:24:48;;;;;;;21.48;13.73;;;22.30;92.80;;;;;;5116788;28;20468;-58
2023/09/11 07:27:14;;;;;;;21.75;13.38;;;22.40;93.50;;;;;;5117388;28;20039;-57
2023/09/11 07:29:40;;;;;;;23.15;13.65;;;22.40;92.10;;;;;;5114616;28;20044;-58
2023/09/11 07:32:06;;;;;;;23.13;13.82;;;22.40;91.40;;;;;;5117662;28;20108;-58
2023/09/11 07:34:32;;;;;;;19.42;13.48;;;22.40;88.50;;;;;;5115684;28;20499;-58
2023/09/11 07:36:57;;;;;;;22.48;14.18;;;22.50;87.70;;;;;;5117468;28;20084;-59
2023/09/11 07:39:23;;;;;;;22.15;14.02;;;22.50;86.70;;;;;;5117124;28;20046;-58
2023/09/11 07:41:49;;;;;;;17.92;12.32;;;22.70;87.40;;;;;;5119152;28;20039;-58
2023/09/11 07:44:14;;;;;;;22.48;14.00;;;22.80;84.40;;;;;;5120631;28;20042;-58
2023/09/11 07:46:40;;;;;;;21.13;14.73;;;23.00;82.10;;;;;;5119508;28;20056;-58
2023/09/11 07:49:06;;;;;;;22.80;13.13;;;23.00;75.50;;;;;;5120696;28;20097;-58
2023/09/11 07:51:32;;;;;;;20.10;13.73;;;23.20;71.60;;;;;;5119066;28;20135;-59
2023/09/11 07:53:59;;;;;;;19.20;12.95;;;23.20;68.00;;;;;;5120562;28;20044;-59
2023/09/11 07:56:25;;;;;;;23.65;14.27;;;23.20;70.40;;;;;;5099570;28;20048;-58
2023/09/11 07:58:51;;;;;;;18.95;13.13;;;23.20;66.30;;;;;;5099811;28;20043;-58
2023/09/11 08:01:21;;;;;;;21.17;13.70;;;23.30;60.90;;;;;;5099951;28;20050;-58
2023/09/11 08:03:47;;;;;;;17.87;12.33;;;23.30;59.90;;;;;;5098658;28;20059;-57
2023/09/11 08:06:14;;;;;;;23.08;13.40;;;23.40;56.50;;;;;;5100160;28;20062;-58
2023/09/11 08:08:39;;;;;;;17.52;11.90;;;23.40;55.60;;;;;;5098760;28;20040;-58
2023/09/11 08:11:34;;;;;;;19.90;12.73;;;23.50;58.20;;;;;;5100188;28;20040;-57
2023/09/11 08:14:00;;;;;;;21.30;11.52;;;23.60;49.40;;;;;;5097876;28;20111;-58
2023/09/11 08:16:26;;;;;;;18.40;12.20;;;23.80;56.90;;;;;;5098169;28;20032;-58
2023/09/11 08:18:52;;;;;;;17.60;11.35;;;23.90;48.30;;;;;;5099619;28;20044;-58
2023/09/11 08:21:19;;;;;;;17.75;11.75;;;24.00;44.90;;;;;;5098756;28;20048;-58
2023/09/11 08:23:45;;;;;;;19.08;10.75;;;24.00;37.20;;;;;;5100140;28;20033;-57
2023/09/11 08:26:11;;;;;;;18.25;11.60;;;24.10;34.70;;;;;;5098672;28;20091;-57
2023/09/11 08:28:37;;;;;;;22.35;11.18;;;24.20;32.00;;;;;;5099709;28;20073;-58
2023/09/11 08:31:03;;;;;;;16.52;10.77;;;24.20;33.90;;;;;;5099189;28;20036;-57
2023/09/11 08:33:30;;;;;;;15.88;10.45;;;24.30;24.40;;;;;;5098876;28;20048;-58
2023/09/11 08:35:55;;;;;;;17.80;10.23;;;24.40;28.60;;;;;;5099439;28;20044;-57
2023/09/11 08:38:21;;;;;;;21.05;11.27;;;24.50;22.50;;;;;;5098334;28;20046;-57
2023/09/11 08:40:47;;;;;;;18.23;10.35;;;24.60;24.50;;;;;;5099981;28;20074;-58
2023/09/11 08:43:13;;;;;;;17.02;10.80;;;24.60;15.60;;;;;;5098624;28;20062;-58
2023/09/11 08:45:39;;;;;;;17.98;10.00;;;24.70;12.50;;;;;;5099150;28;20095;-57
2023/09/11 08:48:14;;;;;;;18.63;11.38;;;24.80;13.80;;;;;;5098050;28;20085;-57
2023/09/11 08:50:53;;;;;;;16.20;10.63;;;24.80;14.50;;;;;;5098478;28;20048;-58
2023/09/11 08:53:22;;;;;;;15.85;10.77;;;24.90;7.20;;;;;;5099252;28;20525;-57
2023/09/11 08:55:49;;;;;;;18.30;10.77;;;25.00;13.40;;;;;;5113619;28;20039;-58
2023/09/11 08:58:20;;;;;;;16.70;11.73;;;25.00;14.20;;;;;;5119692;28;20040;-57
2023/09/11 09:00:46;;;;;;;17.27;10.98;;;24.90;5.50;;;;;;5118892;28;20054;-56
2023/09/11 09:03:13;;;;;;;16.33;10.50;;;25.00;12.00;;;;;;5119004;28;20043;-56
2023/09/11 09:05:40;;;;;;;18.73;11.60;;;25.00;11.50;;;;;;5119584;28;20078;-57
2023/09/11 09:08:07;;;;;;;16.33;10.02;;;25.10;4.30;;;;;;5118215;28;20075;-58
2023/09/11 09:10:33;;;;;;;18.55;12.02;;;25.10;8.00;;;;;;5119639;28;20044;-57
2023/09/11 09:13:00;;;;;;;18.00;10.38;;;25.10;5.00;;;;;;5118578;28;20077;-58
2023/09/11 09:15:28;;;;;;;17.08;10.70;;;25.20;1.40;;;;;;5119697;28;20407;-58
2023/09/11 09:17:55;;;;;;;17.17;10.77;;;25.30;1.00;;;;;;5117471;28;20032;-57
2023/09/11 09:20:21;;;;;;;16.35;11.63;;;25.40;2.20;;;;;;5118479;28;20039;-58
2023/09/11 09:22:57;;;;;;;16.67;11.60;;;25.30;1.00;;;;;;5119160;28;20058;-58
2023/09/11 09:25:28;;;;;;;17.27;9.68;;;25.40;1.00;;;;;;5118108;28;20044;-57
2023/09/11 09:27:56;;;;;;;19.83;12.57;;;25.40;1.00;;;;;;5119705;28;20368;-58
2023/09/11 09:30:26;;;;;;;17.23;11.23;;;25.50;1.00;;;;;;5121052;28;20277;-58
2023/09/11 09:32:52;;;;;;;13.88;11.23;;;25.50;1.00;;;;;;5122018;28;20048;-58
2023/09/11 09:35:30;;;;;;;16.92;11.50;;;25.60;1.00;;;;;;5122909;28;20044;-58
2023/09/11 09:37:57;;;;;;;17.77;11.73;;;25.80;1.00;;;;;;5122239;28;20047;-57
2023/09/11 09:40:33;;;;;;;16.23;12.02;;;25.80;1.00;;;;;;5123422;28;20036;-58
2023/09/11 09:43:00;;;;;;;17.98;12.95;;;25.90;1.00;;;;;;5121899;28;20043;-57
2023/09/11 09:45:33;;;;;;;17.85;12.68;;;25.80;1.00;;;;;;5122991;28;20039;-57
2023/09/11 09:48:09;;;;;;;16.00;12.20;;;25.80;1.00;;;;;;5121999;28;20072;-58
2023/09/11 09:50:50;;;;;;;18.13;12.55;;;25.80;1.00;;;;;;5121670;28;20110;-58
2023/09/11 09:53:45;;;;;;;20.00;13.70;;;26.00;1.00;;;;;;5122895;28;20131;-57
2023/09/11 09:56:12;;;;;;;16.70;13.55;;;25.90;1.00;;;;;;5102952;28;20302;-57
2023/09/11 09:58:44;;;;;;;17.38;12.70;;;26.00;1.00;;;;;;5102535;28;20075;-58
2023/09/11 10:01:20;;;;;;;17.75;13.00;;;26.10;1.00;;;;;;5102092;28;20044;-58
2023/09/11 10:03:51;;;;;;;19.80;13.20;;;26.10;1.00;;;;;;5101016;28;20128;-57
2023/09/11 10:06:21;;;;;;;21.70;14.35;;;26.20;1.00;;;;;;5102411;28;20075;-57
2023/09/11 10:09:08;;;;;;;17.23;11.48;;;26.20;1.00;;;;;;5101279;28;20103;-58
2023/09/11 10:11:35;;;;;;;17.70;13.18;;;26.30;1.00;;;;;;5101381;28;20082;-58
2023/09/11 10:14:05;;;;;;;19.67;12.63;;;26.10;1.00;;;;;;5102239;28;20032;-58
2023/09/11 10:16:30;;;;;;;17.58;12.10;;;26.30;1.00;;;;;;5100744;28;20044;-58
2023/09/11 10:18:58;;;;;;;19.25;13.48;;;26.40;1.00;;;;;;5101270;28;20123;-58
2023/09/11 10:21:24;;;;;;;19.60;13.90;;;26.50;1.00;;;;;;5100326;28;20040;-58
2023/09/11 10:23:51;;;;;;;18.25;14.40;;;26.50;1.00;;;;;;5102605;28;20048;-58
2023/09/11 10:26:35;;;;;;;18.38;13.52;;;26.40;1.00;;;;;;5101268;28;20051;-58
2023/09/11 10:29:07;;;;;;;20.67;12.68;;;26.40;1.00;;;;;;5101006;28;20075;-58
2023/09/11 10:31:39;;;;;;;19.63;13.85;;;26.20;1.00;;;;;;5103396;28;20507;-58
2023/09/11 10:34:07;;;;;;;18.65;14.35;;;26.30;1.00;;;;;;5108789;28;20751;-57
2023/09/11 10:36:37;;;;;;;18.30;13.57;;;26.40;1.00;;;;;;5110378;28;20600;-58
2023/09/11 10:39:06;;;;;;;22.52;16.52;;;26.50;1.00;;;;;;5100990;28;20483;-58
2023/09/11 10:41:33;;;;;;;20.80;14.90;;;26.50;1.00;;;;;;5101004;28;20055;-58
2023/09/11 10:43:59;;;;;;;18.45;14.02;;;26.50;1.00;;;;;;5101619;28;20119;-58
2023/09/11 10:46:39;;;;;;;22.10;15.15;;;26.60;1.00;;;;;;5100513;28;20106;-58
2023/09/11 10:49:16;;;;;;;20.60;14.27;;;26.50;1.00;;;;;;5101231;28;20103;-58
2023/09/11 10:51:42;;;;;;;23.33;13.80;;;26.60;1.00;;;;;;5100491;28;20058;-58
2023/09/11 10:54:11;;;;;;;19.63;15.35;;;26.80;1.00;;;;;;5101117;28;20039;-58
2023/09/11 10:56:37;;;;;;;18.98;14.75;;;26.80;1.00;;;;;;5100947;28;20082;-57
2023/09/11 10:59:04;;;;;;;19.80;13.82;;;26.80;1.00;;;;;;5103899;28;20047;-58
2023/09/11 11:01:32;;;;;;;21.48;14.90;;;27.00;1.00;;;;;;5103871;28;20028;-58
2023/09/11 11:04:02;;;;;;;21.25;17.02;;;27.00;1.00;;;;;;5099636;28;20117;-58
2023/09/11 11:06:29;;;;;;;20.98;15.35;;;27.00;1.00;;;;;;5099692;28;20055;-58
2023/09/11 11:08:54;;;;;;;19.77;15.00;;;26.90;1.00;;;;;;5100242;28;20056;-57
2023/09/11 11:11:26;;;;;;;23.17;18.00;;;27.00;1.00;;;;;;5100928;28;20040;-57
2023/09/11 11:14:17;;;;;;;17.95;13.27;;;26.80;1.00;;;;;;5100305;28;20043;-58
2023/09/11 11:16:56;;;;;;;18.15;14.82;;;27.00;1.00;;;;;;5099992;28;20127;-58
2023/09/11 11:19:26;;;;;;;22.42;15.90;;;27.10;1.00;;;;;;5101208;28;20043;-58
2023/09/11 11:21:52;;;;;;;20.13;16.33;;;27.00;1.00;;;;;;5099556;28;20085;-58
2023/09/11 11:24:22;;;;;;;19.60;13.55;;;27.10;1.00;;;;;;5100743;28;20036;-58
2023/09/11 11:26:48;;;;;;;17.13;13.20;;;27.10;1.00;;;;;;5100691;28;20056;-59
2023/09/11 11:29:16;;;;;;;17.80;14.07;;;27.20;1.00;;;;;;5099734;28;20073;-58
2023/09/11 11:31:43;;;;;;;17.52;13.00;;;27.10;1.00;;;;;;5100870;28;20077;-58
2023/09/11 11:34:11;;;;;;;16.35;12.85;;;27.40;1.00;;;;;;5099483;28;20392;-59
2023/09/11 11:36:39;;;;;;;17.15;12.10;;;27.40;1.00;;;;;;5100987;28;20400;-58
2023/09/11 11:39:06;;;;;;;17.95;13.45;;;27.40;1.00;;;;;;5099207;28;20044;-58
2023/09/11 11:41:35;;;;;;;15.07;10.95;;;27.40;1.00;;;;;;5098163;28;20051;-57
2023/09/11 11:44:01;;;;;;;16.45;11.68;;;27.50;1.00;;;;;;5099175;28;20069;-58
2023/09/11 11:46:29;;;;;;;13.50;10.70;;;27.50;1.00;;;;;;5099599;28;20699;-58
2023/09/11 11:48:54;;;;;;;16.42;10.77;;;27.50;1.00;;;;;;5099711;28;20303;-58
2023/09/11 11:51:30;;;;;;;16.27;11.10;;;27.50;1.00;;;;;;5101291;28;20063;-58
2023/09/11 11:53:55;;;;;;;13.43;8.80;;;27.50;1.00;;;;;;5103554;28;20090;-58
2023/09/11 11:56:21;;;;;;;13.70;7.85;;;27.50;1.00;;;;;;5118459;28;20398;-58
2023/09/11 11:58:47;;;;;;;13.05;7.10;;;27.40;1.00;;;;;;5119949;28;20047;-58
2023/09/11 12:01:13;;;;;;;11.77;7.45;;;27.40;1.00;;;;;;5120386;28;20051;-58
2023/09/11 12:03:46;;;;;;;11.02;7.50;;;27.50;1.00;;;;;;5119334;28;20529;-58
2023/09/11 12:06:12;;;;;;;12.93;7.90;;;27.40;1.00;;;;;;5120411;28;20047;-58
2023/09/11 12:08:38;;;;;;;10.55;7.53;;;27.40;1.00;;;;;;5119436;28;20035;-58
2023/09/11 12:11:07;;;;;;;12.05;7.95;;;27.40;1.00;;;;;;5120652;28;20069;-58
2023/09/11 12:13:32;;;;;;;11.50;7.43;;;27.40;1.00;;;;;;5112530;28;20093;-58
2023/09/11 12:15:59;;;;;;;13.00;6.35;;;27.40;1.00;;;;;;5108691;28;20047;-58
2023/09/11 12:18:27;;;;;;;10.32;6.40;;;27.50;1.00;;;;;;5108145;28;20044;-58
2023/09/11 12:21:02;;;;;;;10.05;6.43;;;27.80;1.00;;;;;;5105162;28;20047;-59
2023/09/11 12:23:29;;;;;;;12.82;6.45;;;27.50;1.00;;;;;;5108311;27;20055;-58
2023/09/11 12:25:55;;;;;;;10.38;6.38;;;27.70;1.00;;;;;;5105320;28;20040;-59
2023/09/11 12:28:22;;;;;;;11.63;6.43;;;27.70;1.00;;;;;;5109837;28;20032;-59
2023/09/11 12:30:48;;;;;;;12.65;5.93;;;27.90;1.00;;;;;;5113827;28;20054;-58
2023/09/11 12:33:16;;;;;;;11.27;6.60;;;28.00;1.00;;;;;;5119664;28;20035;-58